sensor_id;sensor_type;location;lat;lon;timestamp;pressure;altitude;pressure_sealevel;temperature;humidity
1926;BME280;964;42.606;23.588;2023-06-10T00:01:50;94100.63;;;39.85;27.22
1926;BME280;964;42.606;23.588;2023-06-10T00:04:20;94099.22;;;40.14;27.21
1926;BME280;964;42.606;23.588;2023-06-10T00:06:47;94091.63;;;40.53;27.01
1926;BME280;964;42.606;23.588;2023-06-10T00:09:16;94083.28;;;40.07;27.87
1926;BME280;964;42.606;23.588;2023-06-10T00:11:43;94091.19;;;39.88;27.40
1926;BME280;964;42.606;23.588;2023-06-10T00:14:10;94085.78;;;39.75;27.57
1926;BME280;964;42.606;23.588;2023-06-10T00:16:37;94079.41;;;40.18;27.43
1926;BME280;964;42.606;23.588;2023-06-10T00:19:05;94083.66;;;40.72;26.56
1926;BME280;964;42.606;23.588;2023-06-10T00:21:34;94084.03;;;40.31;27.26
1926;BME280;964;42.606;23.588;2023-06-10T00:24:03;94091.28;;;39.60;27.49
1926;BME280;964;42.606;23.588;2023-06-10T00:26:34;94093.25;;;38.52;28.85
1926;BME280;964;42.606;23.588;2023-06-10T00:29:01;94095.50;;;39.53;27.60
1926;BME280;964;42.606;23.588;2023-06-10T00:31:28;94081.41;;;40.02;26.64
1926;BME280;964;42.606;23.588;2023-06-10T00:33:55;94090.69;;;40.50;25.84
1926;BME280;964;42.606;23.588;2023-06-10T00:36:24;94100.63;;;40.00;26.69
1926;BME280;964;42.606;23.588;2023-06-10T00:38:51;94110.88;;;39.62;27.25
1926;BME280;964;42.606;23.588;2023-06-10T00:41:17;94114.03;;;39.22;27.56
1926;BME280;964;42.606;23.588;2023-06-10T00:43:46;94104.13;;;39.78;26.97
1926;BME280;964;42.606;23.588;2023-06-10T00:46:13;94110.88;;;40.21;26.43
1926;BME280;964;42.606;23.588;2023-06-10T00:48:41;94108.44;;;40.09;27.05
1926;BME280;964;42.606;23.588;2023-06-10T00:51:09;94109.53;;;40.06;26.58
1926;BME280;964;42.606;23.588;2023-06-10T00:53:36;94105.09;;;40.03;26.95
1926;BME280;964;42.606;23.588;2023-06-10T00:56:04;94102.88;;;40.02;26.84
1926;BME280;964;42.606;23.588;2023-06-10T00:58:31;94099.31;;;39.86;27.03
1926;BME280;964;42.606;23.588;2023-06-10T01:00:59;94099.47;;;39.73;27.13
1926;BME280;964;42.606;23.588;2023-06-10T01:03:27;94102.34;;;39.45;27.44
1926;BME280;964;42.606;23.588;2023-06-10T01:05:59;94085.91;;;39.62;27.10
1926;BME280;964;42.606;23.588;2023-06-10T01:08:35;94101.16;;;39.33;27.39
1926;BME280;964;42.606;23.588;2023-06-10T01:11:07;94097.19;;;39.56;27.39
1926;BME280;964;42.606;23.588;2023-06-10T01:13:36;94087.34;;;40.06;27.02
1926;BME280;964;42.606;23.588;2023-06-10T01:16:05;94092.09;;;39.83;27.01
1926;BME280;964;42.606;23.588;2023-06-10T01:18:33;94084.38;;;39.46;27.24
1926;BME280;964;42.606;23.588;2023-06-10T01:21:00;94090.09;;;40.06;26.45
1926;BME280;964;42.606;23.588;2023-06-10T01:23:28;94075.53;;;40.29;26.93
1926;BME280;964;42.606;23.588;2023-06-10T01:25:59;94081.59;;;40.12;26.65
1926;BME280;964;42.606;23.588;2023-06-10T01:28:31;94092.13;;;39.98;26.94
1926;BME280;964;42.606;23.588;2023-06-10T01:31:06;94104.72;;;38.56;28.43
1926;BME280;964;42.606;23.588;2023-06-10T01:33:39;94110.22;;;38.27;28.74
1926;BME280;964;42.606;23.588;2023-06-10T01:36:08;94112.84;;;38.54;28.58
1926;BME280;964;42.606;23.588;2023-06-10T01:38:40;94110.50;;;38.86;28.30
1926;BME280;964;42.606;23.588;2023-06-10T01:41:09;94107.44;;;38.69;28.41
1926;BME280;964;42.606;23.588;2023-06-10T01:43:38;94110.97;;;38.77;28.43
1926;BME280;964;42.606;23.588;2023-06-10T01:46:05;94105.09;;;39.45;27.43
1926;BME280;964;42.606;23.588;2023-06-10T01:48:32;94113.66;;;39.18;27.71
1926;BME280;964;42.606;23.588;2023-06-10T01:50:59;94108.97;;;39.42;27.43
1926;BME280;964;42.606;23.588;2023-06-10T01:53:26;94113.25;;;39.14;27.90
1926;BME280;964;42.606;23.588;2023-06-10T01:55:54;94096.38;;;39.92;27.21
1926;BME280;964;42.606;23.588;2023-06-10T01:58:21;94104.63;;;39.69;27.59
1926;BME280;964;42.606;23.588;2023-06-10T02:00:48;94092.13;;;39.91;26.81
1926;BME280;964;42.606;23.588;2023-06-10T02:03:15;94097.75;;;39.55;27.58
1926;BME280;964;42.606;23.588;2023-06-10T02:05:41;94099.53;;;39.88;27.11
1926;BME280;964;42.606;23.588;2023-06-10T02:08:08;94100.59;;;39.70;27.56
1926;BME280;964;42.606;23.588;2023-06-10T02:10:35;94093.22;;;39.80;27.17
1926;BME280;964;42.606;23.588;2023-06-10T02:13:04;94101.03;;;39.46;27.40
1926;BME280;964;42.606;23.588;2023-06-10T02:15:31;94103.84;;;39.17;28.07
1926;BME280;964;42.606;23.588;2023-06-10T02:17:58;94096.88;;;38.96;28.20
1926;BME280;964;42.606;23.588;2023-06-10T02:20:25;94092.16;;;38.55;28.88
1926;BME280;964;42.606;23.588;2023-06-10T02:22:52;94099.41;;;38.16;29.48
1926;BME280;964;42.606;23.588;2023-06-10T02:25:19;94087.75;;;38.80;28.40
1926;BME280;964;42.606;23.588;2023-06-10T02:27:46;94094.69;;;38.94;28.41
1926;BME280;964;42.606;23.588;2023-06-10T02:30:14;94077.75;;;39.13;28.23
1926;BME280;964;42.606;23.588;2023-06-10T02:32:41;94080.19;;;39.16;27.86
1926;BME280;964;42.606;23.588;2023-06-10T02:35:13;94069.06;;;39.45;27.78
1926;BME280;964;42.606;23.588;2023-06-10T02:37:40;94072.19;;;39.41;27.67
1926;BME280;964;42.606;23.588;2023-06-10T02:40:08;94072.13;;;39.85;27.38
1926;BME280;964;42.606;23.588;2023-06-10T02:42:35;94069.84;;;39.68;27.18
1926;BME280;964;42.606;23.588;2023-06-10T02:45:02;94069.91;;;39.83;27.23
1926;BME280;964;42.606;23.588;2023-06-10T02:47:31;94061.81;;;40.31;26.94
1926;BME280;964;42.606;23.588;2023-06-10T02:49:57;94064.00;;;40.09;27.17
1926;BME280;964;42.606;23.588;2023-06-10T02:52:24;94061.44;;;40.27;27.19
1926;BME280;964;42.606;23.588;2023-06-10T02:54:51;94068.09;;;40.39;26.53
1926;BME280;964;42.606;23.588;2023-06-10T02:57:18;94063.69;;;40.36;26.45
1926;BME280;964;42.606;23.588;2023-06-10T02:59:45;94054.03;;;40.67;26.22
1926;BME280;964;42.606;23.588;2023-06-10T03:02:12;94047.38;;;40.25;27.09
1926;BME280;964;42.606;23.588;2023-06-10T03:04:40;94056.78;;;40.44;26.56
1926;BME280;964;42.606;23.588;2023-06-10T03:07:09;94064.53;;;39.70;27.26
1926;BME280;964;42.606;23.588;2023-06-10T03:09:36;94060.34;;;40.14;26.87
1926;BME280;964;42.606;23.588;2023-06-10T03:12:04;94062.75;;;40.26;26.79
1926;BME280;964;42.606;23.588;2023-06-10T03:14:31;94065.84;;;39.99;27.13
1926;BME280;964;42.606;23.588;2023-06-10T03:16:58;94072.53;;;40.04;26.73
1926;BME280;964;42.606;23.588;2023-06-10T03:19:25;94079.53;;;39.97;26.82
1926;BME280;964;42.606;23.588;2023-06-10T03:21:58;94074.34;;;40.01;27.10
1926;BME280;964;42.606;23.588;2023-06-10T03:24:33;94065.16;;;40.22;26.64
1926;BME280;964;42.606;23.588;2023-06-10T03:27:01;94075.16;;;40.17;27.36
1926;BME280;964;42.606;23.588;2023-06-10T03:29:30;94071.81;;;40.34;26.97
1926;BME280;964;42.606;23.588;2023-06-10T03:31:57;94072.38;;;40.40;26.72
1926;BME280;964;42.606;23.588;2023-06-10T03:34:24;94069.56;;;40.09;26.90
1926;BME280;964;42.606;23.588;2023-06-10T03:36:51;94069.59;;;39.51;27.28
1926;BME280;964;42.606;23.588;2023-06-10T03:39:19;94071.78;;;40.03;26.95
1926;BME280;964;42.606;23.588;2023-06-10T03:41:46;94070.34;;;40.17;26.64
1926;BME280;964;42.606;23.588;2023-06-10T03:44:13;94077.56;;;40.21;26.89
1926;BME280;964;42.606;23.588;2023-06-10T03:46:40;94078.09;;;40.27;26.58
1926;BME280;964;42.606;23.588;2023-06-10T03:49:07;94077.53;;;40.66;26.67
1926;BME280;964;42.606;23.588;2023-06-10T03:51:35;94080.69;;;40.70;26.20
1926;BME280;964;42.606;23.588;2023-06-10T03:54:02;94085.84;;;40.96;25.96
1926;BME280;964;42.606;23.588;2023-06-10T03:56:31;94088.47;;;40.49;26.63
1926;BME280;964;42.606;23.588;2023-06-10T03:58:57;94096.88;;;39.67;27.44
1926;BME280;964;42.606;23.588;2023-06-10T04:01:25;94088.09;;;40.45;26.60
1926;BME280;964;42.606;23.588;2023-06-10T04:03:53;94099.94;;;40.83;26.46
1926;BME280;964;42.606;23.588;2023-06-10T04:06:20;94096.28;;;40.73;25.89
1926;BME280;964;42.606;23.588;2023-06-10T04:08:48;94092.56;;;40.71;25.97
1926;BME280;964;42.606;23.588;2023-06-10T04:11:17;94093.28;;;40.86;26.68
1926;BME280;964;42.606;23.588;2023-06-10T04:13:45;94095.31;;;40.71;26.18
1926;BME280;964;42.606;23.588;2023-06-10T04:16:12;94097.94;;;40.61;27.10
1926;BME280;964;42.606;23.588;2023-06-10T04:18:39;94099.78;;;40.66;26.81
1926;BME280;964;42.606;23.588;2023-06-10T04:21:07;94097.19;;;40.60;26.47
1926;BME280;964;42.606;23.588;2023-06-10T04:23:34;94103.44;;;41.06;26.54
1926;BME280;964;42.606;23.588;2023-06-10T04:26:02;94108.28;;;40.83;26.43
1926;BME280;964;42.606;23.588;2023-06-10T04:28:28;94100.69;;;40.46;27.17
1926;BME280;964;42.606;23.588;2023-06-10T04:30:57;94106.63;;;40.80;27.35
1926;BME280;964;42.606;23.588;2023-06-10T04:33:24;94104.03;;;40.22;27.31
1926;BME280;964;42.606;23.588;2023-06-10T04:35:51;94097.00;;;40.13;27.72
1926;BME280;964;42.606;23.588;2023-06-10T04:38:17;94105.06;;;39.88;28.02
1926;BME280;964;42.606;23.588;2023-06-10T04:40:44;94092.47;;;39.87;28.06
1926;BME280;964;42.606;23.588;2023-06-10T04:43:11;94099.41;;;40.16;27.86
1926;BME280;964;42.606;23.588;2023-06-10T04:45:38;94101.44;;;40.31;27.21
1926;BME280;964;42.606;23.588;2023-06-10T04:48:06;94102.06;;;39.71;27.63
1926;BME280;964;42.606;23.588;2023-06-10T04:50:34;94103.47;;;40.23;27.37
1926;BME280;964;42.606;23.588;2023-06-10T04:53:01;94092.53;;;40.48;27.28
1926;BME280;964;42.606;23.588;2023-06-10T04:55:28;94093.28;;;40.86;27.35
1926;BME280;964;42.606;23.588;2023-06-10T04:57:55;94088.84;;;40.98;26.92
1926;BME280;964;42.606;23.588;2023-06-10T05:00:23;94093.66;;;40.45;27.74
1926;BME280;964;42.606;23.588;2023-06-10T05:02:49;94096.63;;;40.47;27.27
1926;BME280;964;42.606;23.588;2023-06-10T05:05:18;94089.75;;;41.01;27.10
1926;BME280;964;42.606;23.588;2023-06-10T05:07:46;94090.66;;;41.03;26.58
1926;BME280;964;42.606;23.588;2023-06-10T05:10:12;94096.81;;;41.57;25.69
1926;BME280;964;42.606;23.588;2023-06-10T05:12:40;94088.25;;;41.55;25.96
1926;BME280;964;42.606;23.588;2023-06-10T05:15:08;94090.75;;;41.76;26.14
1926;BME280;964;42.606;23.588;2023-06-10T05:17:35;94082.22;;;41.81;25.88
1926;BME280;964;42.606;23.588;2023-06-10T05:20:02;94091.56;;;41.61;25.70
1926;BME280;964;42.606;23.588;2023-06-10T05:22:30;94089.75;;;41.56;26.59
1926;BME280;964;42.606;23.588;2023-06-10T05:24:57;94091.00;;;42.02;25.69
1926;BME280;964;42.606;23.588;2023-06-10T05:27:24;94093.66;;;40.83;26.75
1926;BME280;964;42.606;23.588;2023-06-10T05:29:50;94081.41;;;41.01;26.31
1926;BME280;964;42.606;23.588;2023-06-10T05:32:17;94076.28;;;41.77;25.98
1926;BME280;964;42.606;23.588;2023-06-10T05:34:44;94073.88;;;41.81;25.79
1926;BME280;964;42.606;23.588;2023-06-10T05:37:12;94082.03;;;42.12;26.09
1926;BME280;964;42.606;23.588;2023-06-10T05:39:40;94076.06;;;42.15;26.19
1926;BME280;964;42.606;23.588;2023-06-10T05:42:07;94069.88;;;42.24;25.45
1926;BME280;964;42.606;23.588;2023-06-10T05:44:35;94076.22;;;42.42;26.49
1926;BME280;964;42.606;23.588;2023-06-10T05:47:02;94079.41;;;42.14;25.69
1926;BME280;964;42.606;23.588;2023-06-10T05:49:29;94069.06;;;42.06;25.66
1926;BME280;964;42.606;23.588;2023-06-10T05:51:56;94080.66;;;42.45;25.38
1926;BME280;964;42.606;23.588;2023-06-10T05:54:24;94079.84;;;42.52;25.64
1926;BME280;964;42.606;23.588;2023-06-10T05:56:53;94075.63;;;42.26;26.36
1926;BME280;964;42.606;23.588;2023-06-10T05:59:20;94087.59;;;42.12;26.52
1926;BME280;964;42.606;23.588;2023-06-10T06:01:51;94089.16;;;41.97;26.39
1926;BME280;964;42.606;23.588;2023-06-10T06:04:18;94088.09;;;42.18;25.86
1926;BME280;964;42.606;23.588;2023-06-10T06:06:45;94093.50;;;42.16;26.24
1926;BME280;964;42.606;23.588;2023-06-10T06:09:12;94093.56;;;41.21;27.64
1926;BME280;964;42.606;23.588;2023-06-10T06:11:39;94095.31;;;41.56;26.54
1926;BME280;964;42.606;23.588;2023-06-10T06:14:07;94093.28;;;41.96;27.13
1926;BME280;964;42.606;23.588;2023-06-10T06:16:34;94094.53;;;42.28;26.19
1926;BME280;964;42.606;23.588;2023-06-10T06:19:01;94099.78;;;42.24;26.25
1926;BME280;964;42.606;23.588;2023-06-10T06:21:27;94097.94;;;42.19;26.69
1926;BME280;964;42.606;23.588;2023-06-10T06:23:54;94096.50;;;41.85;26.87
1926;BME280;964;42.606;23.588;2023-06-10T06:26:21;94098.19;;;41.26;27.70
1926;BME280;964;42.606;23.588;2023-06-10T06:28:48;94106.22;;;41.06;27.97
1926;BME280;964;42.606;23.588;2023-06-10T06:31:16;94110.69;;;41.09;26.95
1926;BME280;964;42.606;23.588;2023-06-10T06:33:43;94111.41;;;41.02;27.51
1926;BME280;964;42.606;23.588;2023-06-10T06:36:10;94098.84;;;41.96;26.63
1926;BME280;964;42.606;23.588;2023-06-10T06:38:37;94101.69;;;41.34;27.01
1926;BME280;964;42.606;23.588;2023-06-10T06:41:03;94096.81;;;41.57;27.15
1926;BME280;964;42.606;23.588;2023-06-10T06:43:32;94099.41;;;41.55;27.49
1926;BME280;964;42.606;23.588;2023-06-10T06:45:58;94094.28;;;42.08;26.32
1926;BME280;964;42.606;23.588;2023-06-10T06:48:27;94086.47;;;42.15;26.73
1926;BME280;964;42.606;23.588;2023-06-10T06:50:53;94084.88;;;42.29;25.96
1926;BME280;964;42.606;23.588;2023-06-10T06:53:21;94084.25;;;42.63;25.95
1926;BME280;964;42.606;23.588;2023-06-10T06:55:48;94076.81;;;42.65;26.29
1926;BME280;964;42.606;23.588;2023-06-10T06:58:15;94084.28;;;42.80;25.54
1926;BME280;964;42.606;23.588;2023-06-10T07:00:42;94083.31;;;42.60;25.74
1926;BME280;964;42.606;23.588;2023-06-10T07:03:09;94079.59;;;42.82;25.56
1926;BME280;964;42.606;23.588;2023-06-10T07:05:38;94078.28;;;42.66;26.31
1926;BME280;964;42.606;23.588;2023-06-10T07:08:05;94081.53;;;42.30;26.32
1926;BME280;964;42.606;23.588;2023-06-10T07:10:32;94071.56;;;42.69;25.45
1926;BME280;964;42.606;23.588;2023-06-10T07:12:59;94080.25;;;42.90;25.45
1926;BME280;964;42.606;23.588;2023-06-10T07:15:26;94082.13;;;42.46;26.28
1926;BME280;964;42.606;23.588;2023-06-10T07:17:52;94081.34;;;42.53;26.29
1926;BME280;964;42.606;23.588;2023-06-10T07:20:20;94084.50;;;42.74;25.92
1926;BME280;964;42.606;23.588;2023-06-10T07:22:49;94086.72;;;42.76;25.91
1926;BME280;964;42.606;23.588;2023-06-10T07:25:15;94081.22;;;42.68;26.35
1926;BME280;964;42.606;23.588;2023-06-10T07:27:42;94090.50;;;42.46;25.97
1926;BME280;964;42.606;23.588;2023-06-10T07:30:09;94089.78;;;42.87;26.74
1926;BME280;964;42.606;23.588;2023-06-10T07:32:36;94093.34;;;42.38;27.17
1926;BME280;964;42.606;23.588;2023-06-10T07:35:05;94079.88;;;43.11;25.82
1926;BME280;964;42.606;23.588;2023-06-10T07:37:32;94089.00;;;43.12;26.72
1926;BME280;964;42.606;23.588;2023-06-10T07:40:00;94075.97;;;43.58;25.72
1926;BME280;964;42.606;23.588;2023-06-10T07:42:27;94078.81;;;43.24;25.94
1926;BME280;964;42.606;23.588;2023-06-10T07:44:54;94073.69;;;43.64;25.25
1926;BME280;964;42.606;23.588;2023-06-10T07:47:21;94082.00;;;43.03;26.63
1926;BME280;964;42.606;23.588;2023-06-10T07:49:47;94074.09;;;44.14;24.93
1926;BME280;964;42.606;23.588;2023-06-10T07:52:14;94067.53;;;44.65;24.66
1926;BME280;964;42.606;23.588;2023-06-10T07:54:41;94073.91;;;44.95;24.38
1926;BME280;964;42.606;23.588;2023-06-10T07:57:09;94067.09;;;44.78;24.70
1926;BME280;964;42.606;23.588;2023-06-10T07:59:36;94064.66;;;45.21;23.94
1926;BME280;964;42.606;23.588;2023-06-10T08:02:03;94061.72;;;45.38;23.66
1926;BME280;964;42.606;23.588;2023-06-10T08:04:30;94067.44;;;45.59;23.56
1926;BME280;964;42.606;23.588;2023-06-10T08:06:57;94066.38;;;45.83;23.16
1926;BME280;964;42.606;23.588;2023-06-10T08:09:24;94062.41;;;45.67;22.98
1926;BME280;964;42.606;23.588;2023-06-10T08:11:51;94059.56;;;47.31;22.07
1926;BME280;964;42.606;23.588;2023-06-10T08:14:19;94056.75;;;47.64;21.86
1926;BME280;964;42.606;23.588;2023-06-10T08:16:46;94059.59;;;47.76;21.20
1926;BME280;964;42.606;23.588;2023-06-10T08:19:13;94055.78;;;46.53;22.30
1926;BME280;964;42.606;23.588;2023-06-10T08:21:40;94052.19;;;47.47;21.33
1926;BME280;964;42.606;23.588;2023-06-10T08:24:07;94050.44;;;47.42;21.77
1926;BME280;964;42.606;23.588;2023-06-10T08:26:34;94044.41;;;47.03;21.37
1926;BME280;964;42.606;23.588;2023-06-10T08:29:00;94040.31;;;47.82;21.85
1926;BME280;964;42.606;23.588;2023-06-10T08:31:29;94039.69;;;46.85;21.84
1926;BME280;964;42.606;23.588;2023-06-10T08:33:56;94040.00;;;48.22;21.14
1926;BME280;964;42.606;23.588;2023-06-10T08:36:22;94036.97;;;48.41;20.36
1926;BME280;964;42.606;23.588;2023-06-10T08:38:49;94038.16;;;48.15;20.21
1926;BME280;964;42.606;23.588;2023-06-10T08:41:17;94032.03;;;48.77;19.68
1926;BME280;964;42.606;23.588;2023-06-10T08:46:31;94031.69;;;48.47;18.80
1926;BME280;964;42.606;23.588;2023-06-10T08:49:02;94022.28;;;48.31;19.55
1926;BME280;964;42.606;23.588;2023-06-10T08:51:31;94013.72;;;49.01;18.42
1926;BME280;964;42.606;23.588;2023-06-10T08:54:01;94019.00;;;49.06;16.83
1926;BME280;964;42.606;23.588;2023-06-10T08:56:29;94023.47;;;48.75;17.45
1926;BME280;964;42.606;23.588;2023-06-10T08:58:57;94004.69;;;49.53;17.38
1926;BME280;964;42.606;23.588;2023-06-10T09:01:25;94014.91;;;48.73;17.02
1926;BME280;964;42.606;23.588;2023-06-10T09:03:54;94019.66;;;47.44;18.26
1926;BME280;964;42.606;23.588;2023-06-10T09:06:21;94018.78;;;47.30;19.06
1926;BME280;964;42.606;23.588;2023-06-10T09:08:48;94018.19;;;47.32;19.40
1926;BME280;964;42.606;23.588;2023-06-10T09:11:16;94011.25;;;48.58;17.88
1926;BME280;964;42.606;23.588;2023-06-10T09:13:43;94004.28;;;49.08;17.82
1926;BME280;964;42.606;23.588;2023-06-10T09:16:10;94004.06;;;49.04;17.88
1926;BME280;964;42.606;23.588;2023-06-10T09:18:38;94000.00;;;49.44;17.44
1926;BME280;964;42.606;23.588;2023-06-10T09:21:06;94003.78;;;49.62;17.34
1926;BME280;964;42.606;23.588;2023-06-10T09:23:33;93993.72;;;50.37;17.38
1926;BME280;964;42.606;23.588;2023-06-10T09:26:00;93988.00;;;50.91;17.29
1926;BME280;964;42.606;23.588;2023-06-10T09:28:29;93987.50;;;51.54;16.60
1926;BME280;964;42.606;23.588;2023-06-10T09:31:03;93978.34;;;51.39;17.50
1926;BME280;964;42.606;23.588;2023-06-10T09:33:31;93972.63;;;51.08;16.59
1926;BME280;964;42.606;23.588;2023-06-10T09:35:58;93980.94;;;50.77;16.53
1926;BME280;964;42.606;23.588;2023-06-10T09:38:32;93986.41;;;48.67;17.32
1926;BME280;964;42.606;23.588;2023-06-10T09:40:59;93976.47;;;50.31;15.48
1926;BME280;964;42.606;23.588;2023-06-10T09:43:39;93989.50;;;49.33;17.26
1926;BME280;964;42.606;23.588;2023-06-10T09:46:07;93983.44;;;49.64;16.62
1926;BME280;964;42.606;23.588;2023-06-10T09:48:41;93988.13;;;49.59;16.81
1926;BME280;964;42.606;23.588;2023-06-10T09:51:09;93981.09;;;49.46;16.39
1926;BME280;964;42.606;23.588;2023-06-10T09:53:38;93973.66;;;50.44;15.77
1926;BME280;964;42.606;23.588;2023-06-10T09:56:05;93969.78;;;50.38;17.10
1926;BME280;964;42.606;23.588;2023-06-10T09:58:36;93979.63;;;49.45;18.56
1926;BME280;964;42.606;23.588;2023-06-10T10:01:08;93966.31;;;49.98;16.40
1926;BME280;964;42.606;23.588;2023-06-10T10:03:43;93962.34;;;49.26;17.33
1926;BME280;964;42.606;23.588;2023-06-10T10:06:11;93958.66;;;50.01;16.56
1926;BME280;964;42.606;23.588;2023-06-10T10:08:39;93968.72;;;50.04;15.89
1926;BME280;964;42.606;23.588;2023-06-10T10:11:06;93969.16;;;48.72;16.78
1926;BME280;964;42.606;23.588;2023-06-10T10:13:34;93959.22;;;49.58;16.86
1926;BME280;964;42.606;23.588;2023-06-10T10:16:04;93955.03;;;50.53;15.67
1926;BME280;964;42.606;23.588;2023-06-10T10:18:33;93959.41;;;49.63;16.45
1926;BME280;964;42.606;23.588;2023-06-10T10:21:05;93946.00;;;50.84;15.34
1926;BME280;964;42.606;23.588;2023-06-10T10:23:38;93942.63;;;50.87;15.71
1926;BME280;964;42.606;23.588;2023-06-10T10:26:10;93941.34;;;52.27;14.59
1926;BME280;964;42.606;23.588;2023-06-10T10:28:41;93934.34;;;52.28;14.38
1926;BME280;964;42.606;23.588;2023-06-10T10:31:15;93946.66;;;50.98;15.35
1926;BME280;964;42.606;23.588;2023-06-10T10:33:51;93948.13;;;51.58;15.03
1926;BME280;964;42.606;23.588;2023-06-10T10:36:19;93937.41;;;51.70;15.37
1926;BME280;964;42.606;23.588;2023-06-10T10:38:47;93941.75;;;50.56;15.91
1926;BME280;964;42.606;23.588;2023-06-10T10:41:17;93937.25;;;49.82;16.23
1926;BME280;964;42.606;23.588;2023-06-10T10:43:44;93930.63;;;52.08;14.78
1926;BME280;964;42.606;23.588;2023-06-10T10:46:13;93926.53;;;52.96;14.45
1926;BME280;964;42.606;23.588;2023-06-10T10:48:41;93925.75;;;52.60;13.78
1926;BME280;964;42.606;23.588;2023-06-10T10:51:08;93917.41;;;52.97;14.39
1926;BME280;964;42.606;23.588;2023-06-10T10:53:37;93915.97;;;52.29;14.55
1926;BME280;964;42.606;23.588;2023-06-10T10:56:06;93912.97;;;52.59;14.44
1926;BME280;964;42.606;23.588;2023-06-10T10:58:34;93908.72;;;51.93;14.75
1926;BME280;964;42.606;23.588;2023-06-10T11:01:10;93910.75;;;51.59;15.04
1926;BME280;964;42.606;23.588;2023-06-10T11:03:43;93915.31;;;50.92;16.08
1926;BME280;964;42.606;23.588;2023-06-10T11:06:13;93914.72;;;51.38;15.69
1926;BME280;964;42.606;23.588;2023-06-10T11:08:49;93899.13;;;52.00;15.04
1926;BME280;964;42.606;23.588;2023-06-10T11:11:20;93895.19;;;53.27;14.44
1926;BME280;964;42.606;23.588;2023-06-10T11:14:08;93893.28;;;52.78;14.39
1926;BME280;964;42.606;23.588;2023-06-10T11:16:40;93894.03;;;52.46;14.71
1926;BME280;964;42.606;23.588;2023-06-10T11:19:08;93898.28;;;49.51;16.48
1926;BME280;964;42.606;23.588;2023-06-10T11:21:58;93889.19;;;52.66;14.29
1926;BME280;964;42.606;23.588;2023-06-10T11:24:26;93896.31;;;51.37;15.83
1926;BME280;964;42.606;23.588;2023-06-10T11:26:53;93888.75;;;50.68;15.33
1926;BME280;964;42.606;23.588;2023-06-10T11:29:21;93885.44;;;49.23;16.74
1926;BME280;964;42.606;23.588;2023-06-10T11:31:51;93880.22;;;50.25;15.50
1926;BME280;964;42.606;23.588;2023-06-10T11:34:24;93864.22;;;51.78;15.96
1926;BME280;964;42.606;23.588;2023-06-10T11:36:53;93874.69;;;50.40;15.07
1926;BME280;964;42.606;23.588;2023-06-10T11:39:21;93873.97;;;52.06;14.75
1926;BME280;964;42.606;23.588;2023-06-10T11:41:50;93875.69;;;51.98;14.57
1926;BME280;964;42.606;23.588;2023-06-10T11:44:17;93871.06;;;52.04;15.21
1926;BME280;964;42.606;23.588;2023-06-10T11:46:47;93870.06;;;50.61;15.15
1926;BME280;964;42.606;23.588;2023-06-10T11:49:15;93859.44;;;50.45;16.01
1926;BME280;964;42.606;23.588;2023-06-10T11:51:43;93864.16;;;50.27;15.84
1926;BME280;964;42.606;23.588;2023-06-10T11:54:15;93865.78;;;48.73;17.63
1926;BME280;964;42.606;23.588;2023-06-10T11:56:42;93859.28;;;51.31;15.27
1926;BME280;964;42.606;23.588;2023-06-10T11:59:09;93857.31;;;51.81;15.08
1926;BME280;964;42.606;23.588;2023-06-10T12:01:37;93858.97;;;51.55;14.88
1926;BME280;964;42.606;23.588;2023-06-10T12:04:09;93861.53;;;50.31;15.29
1926;BME280;964;42.606;23.588;2023-06-10T12:06:41;93856.00;;;51.21;15.65
1926;BME280;964;42.606;23.588;2023-06-10T12:09:17;93860.19;;;51.20;16.04
1926;BME280;964;42.606;23.588;2023-06-10T12:11:44;93867.44;;;50.08;17.02
1926;BME280;964;42.606;23.588;2023-06-10T12:14:12;93860.31;;;50.07;16.50
1926;BME280;964;42.606;23.588;2023-06-10T12:16:38;93859.25;;;50.14;17.53
1926;BME280;964;42.606;23.588;2023-06-10T12:19:07;93857.41;;;50.05;17.51
1926;BME280;964;42.606;23.588;2023-06-10T12:21:36;93859.25;;;49.59;17.57
1926;BME280;964;42.606;23.588;2023-06-10T12:24:06;93851.06;;;50.47;16.55
1926;BME280;964;42.606;23.588;2023-06-10T12:26:41;93852.56;;;50.21;17.35
1926;BME280;964;42.606;23.588;2023-06-10T12:29:22;93844.75;;;51.37;16.69
1926;BME280;964;42.606;23.588;2023-06-10T12:31:56;93852.19;;;49.20;17.79
1926;BME280;964;42.606;23.588;2023-06-10T12:34:36;93832.91;;;51.40;16.34
1926;BME280;964;42.606;23.588;2023-06-10T12:37:04;93841.84;;;50.61;16.99
1926;BME280;964;42.606;23.588;2023-06-10T12:39:32;93840.03;;;51.12;16.72
1926;BME280;964;42.606;23.588;2023-06-10T12:42:00;93845.03;;;50.39;16.88
1926;BME280;964;42.606;23.588;2023-06-10T12:44:32;93854.94;;;48.55;17.72
1926;BME280;964;42.606;23.588;2023-06-10T12:47:00;93842.31;;;49.32;17.06
1926;BME280;964;42.606;23.588;2023-06-10T12:49:27;93841.50;;;49.43;17.26
1926;BME280;964;42.606;23.588;2023-06-10T12:51:55;93841.50;;;49.57;17.16
1926;BME280;964;42.606;23.588;2023-06-10T12:54:22;93839.31;;;50.24;16.48
1926;BME280;964;42.606;23.588;2023-06-10T12:56:49;93842.78;;;49.68;17.20
1926;BME280;964;42.606;23.588;2023-06-10T12:59:15;93833.88;;;50.71;16.74
1926;BME280;964;42.606;23.588;2023-06-10T13:01:43;93832.28;;;50.38;16.53
1926;BME280;964;42.606;23.588;2023-06-10T13:04:09;93830.53;;;50.61;16.35
1926;BME280;964;42.606;23.588;2023-06-10T13:06:37;93828.63;;;50.36;16.57
1926;BME280;964;42.606;23.588;2023-06-10T13:09:06;93836.22;;;49.24;16.67
1926;BME280;964;42.606;23.588;2023-06-10T13:11:34;93828.88;;;49.85;15.92
1926;BME280;964;42.606;23.588;2023-06-10T13:14:02;93829.22;;;49.78;16.68
1926;BME280;964;42.606;23.588;2023-06-10T13:16:30;93834.53;;;49.58;16.28
1926;BME280;964;42.606;23.588;2023-06-10T13:18:57;93837.13;;;49.40;16.47
1926;BME280;964;42.606;23.588;2023-06-10T13:21:24;93837.00;;;49.38;16.06
1926;BME280;964;42.606;23.588;2023-06-10T13:23:51;93846.22;;;48.26;16.45
1926;BME280;964;42.606;23.588;2023-06-10T13:26:19;93838.31;;;48.11;17.26
1926;BME280;964;42.606;23.588;2023-06-10T13:28:46;93838.06;;;49.06;16.46
1926;BME280;964;42.606;23.588;2023-06-10T13:31:13;93840.75;;;49.29;16.13